createdAt,value
2023-01-09T00:01:25.105Z,92.05
2023-01-09T00:03:54.484Z,92.21
2023-01-09T00:06:22.423Z,91.96
2023-01-09T00:08:50.565Z,92.74
2023-01-09T00:11:19.976Z,92.47
2023-01-09T00:13:48.075Z,92.46
2023-01-09T00:16:16.491Z,92.58
2023-01-09T00:18:44.528Z,92.15
2023-01-09T00:21:14.396Z,92.97
2023-01-09T00:23:42.462Z,92.39
2023-01-09T00:26:14.867Z,92.57
2023-01-09T00:28:44.303Z,93.58
2023-01-09T00:31:13.008Z,93.15
2023-01-09T00:33:43.781Z,92.49
2023-01-09T00:36:12.383Z,92.92
2023-01-09T00:38:41.321Z,93.23
2023-01-09T00:41:13.092Z,93.33
2023-01-09T00:43:47.622Z,93.16
2023-01-09T00:46:16.623Z,92.43
2023-01-09T00:48:48.879Z,92.21
2023-01-09T00:51:18.392Z,91.87
2023-01-09T00:53:46.890Z,92.55
2023-01-09T00:56:17.841Z,91.91
2023-01-09T00:58:47.933Z,91.48
2023-01-09T01:01:15.954Z,91.35
2023-01-09T01:03:44.272Z,91.64
2023-01-09T01:06:29.439Z,91.78
2023-01-09T01:08:57.507Z,91.69
2023-01-09T01:11:25.600Z,91.78
2023-01-09T01:13:54.926Z,91.82
2023-01-09T01:16:22.974Z,91.50
2023-01-09T01:18:50.838Z,91.63
2023-01-09T01:21:19.809Z,92.15
2023-01-09T01:23:47.722Z,92.25
2023-01-09T01:26:17.476Z,92.35
2023-01-09T01:28:45.619Z,92.16
2023-01-09T01:31:19.326Z,91.80
2023-01-09T01:33:47.574Z,91.34
2023-01-09T01:36:17.551Z,91.29
2023-01-09T01:38:46.921Z,91.22
2023-01-09T01:41:29.259Z,91.21
2023-01-09T01:43:59.197Z,91.55
2023-01-09T01:46:29.016Z,91.28
2023-01-09T01:49:01.268Z,90.95
2023-01-09T01:51:32.014Z,92.24
2023-01-09T01:54:04.422Z,91.45
2023-01-09T01:56:37.739Z,90.94
2023-01-09T01:59:09.845Z,91.30
2023-01-09T02:01:42.059Z,90.57
2023-01-09T02:04:11.011Z,90.46
2023-01-09T02:06:39.715Z,89.97
2023-01-09T02:09:08.441Z,89.32
2023-01-09T02:11:36.380Z,90.12
2023-01-09T02:14:04.460Z,90.87
2023-01-09T02:16:48.068Z,90.30
2023-01-09T02:19:34.103Z,89.70
2023-01-09T02:22:12.800Z,90.26
2023-01-09T02:25:03.324Z,89.65
2023-01-09T02:28:11.028Z,89.38
2023-01-09T02:30:47.752Z,89.01
2023-01-09T02:33:40.635Z,89.66
2023-01-09T02:36:23.739Z,88.37
2023-01-09T02:39:09.151Z,89.24
2023-01-09T02:41:43.715Z,88.88
2023-01-09T02:44:22.568Z,88.73
2023-01-09T02:47:03.494Z,88.50
2023-01-09T02:49:32.604Z,88.76
2023-01-09T02:52:14.787Z,89.05
2023-01-09T02:54:54.861Z,88.47
2023-01-09T02:57:31.974Z,88.77
2023-01-09T03:00:10.813Z,87.79
2023-01-09T03:02:50.768Z,88.21
2023-01-09T03:05:27.176Z,87.78
2023-01-09T03:08:02.185Z,87.84
2023-01-09T03:10:36.924Z,88.53
2023-01-09T03:13:06.543Z,88.46
2023-01-09T03:15:38.208Z,87.60
2023-01-09T03:18:09.988Z,87.91
2023-01-09T03:20:39.759Z,88.47
2023-01-09T03:23:08.866Z,87.52
2023-01-09T03:25:36.765Z,88.08
2023-01-09T03:28:07.240Z,87.21
2023-01-09T03:30:37.730Z,87.07
2023-01-09T03:33:06.903Z,86.77
2023-01-09T03:35:34.712Z,86.54
2023-01-09T03:38:02.500Z,85.72
2023-01-09T03:40:30.379Z,85.07
2023-01-09T03:42:58.212Z,85.66
2023-01-09T03:45:26.058Z,86.50
2023-01-09T03:47:54.085Z,86.62
2023-01-09T03:50:23.292Z,85.25
2023-01-09T03:52:51.110Z,85.69
2023-01-09T03:55:19.096Z,85.33
2023-01-09T03:57:46.967Z,85.23
2023-01-09T04:00:15.558Z,86.09
2023-01-09T04:02:43.771Z,86.22
2023-01-09T04:05:12.036Z,86.10
2023-01-09T04:07:41.289Z,85.53
2023-01-09T04:10:10.623Z,85.63
2023-01-09T04:12:38.473Z,85.33
2023-01-09T04:15:07.470Z,85.80
2023-01-09T04:17:35.429Z,85.79
2023-01-09T04:20:03.320Z,86.16
2023-01-09T04:22:32.037Z,85.22
2023-01-09T04:25:01.415Z,85.62
2023-01-09T04:27:29.321Z,85.97
2023-01-09T04:29:57.272Z,85.97
2023-01-09T04:32:27.591Z,86.43
2023-01-09T04:34:55.442Z,86.81
2023-01-09T04:37:24.464Z,87.17
2023-01-09T04:39:56.077Z,86.73
2023-01-09T04:42:25.635Z,86.83
2023-01-09T04:44:54.189Z,87.56
2023-01-09T04:47:23.861Z,87.68
2023-01-09T04:49:52.072Z,88.13
2023-01-09T04:52:19.953Z,88.48
2023-01-09T04:54:47.885Z,88.68
2023-01-09T04:57:15.681Z,88.97
2023-01-09T04:59:44.929Z,89.50
2023-01-09T05:02:13.055Z,89.91
2023-01-09T05:04:41.006Z,89.83
2023-01-09T05:07:09.001Z,90.38
2023-01-09T05:09:36.958Z,90.79
2023-01-09T05:12:05.164Z,90.81
2023-01-09T05:14:33.171Z,91.53
2023-01-09T05:17:02.463Z,91.50
2023-01-09T05:19:30.303Z,91.32
2023-01-09T05:21:58.151Z,92.17
2023-01-09T05:24:26.142Z,92.79
2023-01-09T05:26:53.978Z,93.17
2023-01-09T05:29:21.857Z,93.90
2023-01-09T05:31:49.800Z,94.08
2023-01-09T05:34:19.140Z,94.11
2023-01-09T05:36:47.032Z,94.22
2023-01-09T05:39:15.005Z,94.20
2023-01-09T05:41:42.874Z,94.93
2023-01-09T05:44:10.719Z,95.11
2023-01-09T05:46:38.699Z,95.27
2023-01-09T05:49:06.523Z,95.79
2023-01-09T05:51:35.795Z,95.28
2023-01-09T05:54:04.907Z,95.43
2023-01-09T05:56:32.743Z,96.08
2023-01-09T05:59:00.563Z,95.37
2023-01-09T06:01:28.517Z,95.27
2023-01-09T06:03:56.344Z,94.83
2023-01-09T06:06:24.753Z,94.16
2023-01-09T06:08:54.468Z,94.22
2023-01-09T06:11:22.265Z,94.57
2023-01-09T06:13:50.238Z,94.77
2023-01-09T06:16:18.508Z,94.01
2023-01-09T06:18:46.376Z,95.00
2023-01-09T06:21:14.259Z,95.18
2023-01-09T06:23:42.251Z,94.39
2023-01-09T06:26:11.538Z,93.89
2023-01-09T06:28:39.351Z,93.36
2023-01-09T06:31:07.337Z,93.19
2023-01-09T06:33:35.311Z,91.83
2023-01-09T06:36:03.191Z,91.80
2023-01-09T06:38:31.184Z,91.02
2023-01-09T06:40:59.078Z,91.60
2023-01-09T06:43:28.309Z,91.61
2023-01-09T06:45:57.253Z,91.85
2023-01-09T06:48:25.922Z,91.79
2023-01-09T06:50:54.044Z,91.77
2023-01-09T06:53:22.161Z,91.47
2023-01-09T06:55:50.676Z,92.06
2023-01-09T06:58:18.923Z,93.48
2023-01-09T07:00:49.395Z,92.63
2023-01-09T07:03:19.862Z,93.28
2023-01-09T07:05:48.153Z,92.79
2023-01-09T07:08:19.087Z,92.16
2023-01-09T07:10:46.922Z,91.55
2023-01-09T07:13:14.780Z,91.56
2023-01-09T07:15:43.091Z,91.36
2023-01-09T07:18:12.377Z,91.18
2023-01-09T07:20:41.294Z,91.48
2023-01-09T07:23:09.908Z,92.29
2023-01-09T07:25:37.880Z,91.23
2023-01-09T07:28:06.640Z,91.05
2023-01-09T07:30:34.574Z,91.33
2023-01-09T07:33:04.016Z,91.16
2023-01-09T07:35:33.741Z,91.31
2023-01-09T07:38:01.914Z,90.98
2023-01-09T07:40:29.864Z,91.98
2023-01-09T07:42:57.759Z,91.47
2023-01-09T07:45:25.653Z,92.04
2023-01-09T07:47:53.684Z,92.52
2023-01-09T07:50:21.485Z,92.42
2023-01-09T07:52:50.808Z,91.68
2023-01-09T07:55:18.757Z,91.32
2023-01-09T07:57:49.863Z,91.62
2023-01-09T08:00:18.550Z,91.95
2023-01-09T08:02:46.442Z,91.87
2023-01-09T08:05:15.927Z,92.68
2023-01-09T08:07:44.120Z,91.68
2023-01-09T08:10:13.990Z,91.56
2023-01-09T08:12:44.209Z,91.79
2023-01-09T08:15:12.866Z,91.95
2023-01-09T08:17:42.365Z,91.10
2023-01-09T08:20:12.176Z,90.30
2023-01-09T08:22:40.690Z,90.39
2023-01-09T08:25:11.968Z,90.94
2023-01-09T08:27:41.619Z,90.17
2023-01-09T08:30:11.091Z,88.97
2023-01-09T08:32:41.310Z,90.10
2023-01-09T08:35:09.823Z,90.08
2023-01-09T08:37:37.661Z,90.47
2023-01-09T08:40:06.325Z,89.70
2023-01-09T08:42:51.493Z,89.42
2023-01-09T08:45:38.024Z,89.78
2023-01-09T08:48:06.305Z,89.19
2023-01-09T08:50:34.210Z,87.94
2023-01-09T08:53:02.217Z,89.08
2023-01-09T08:55:31.334Z,88.43
2023-01-09T08:57:59.142Z,87.83
2023-01-09T09:00:28.611Z,87.86
2023-01-09T09:02:58.063Z,88.05
2023-01-09T09:05:27.387Z,87.66
2023-01-09T09:07:56.674Z,88.88
2023-01-09T09:10:28.620Z,88.74
2023-01-09T09:12:58.214Z,88.21
2023-01-09T09:15:28.495Z,88.15
2023-01-09T09:17:57.821Z,88.08
2023-01-09T09:20:29.122Z,89.21
2023-01-09T09:22:56.999Z,88.85
2023-01-09T09:25:25.010Z,88.78
2023-01-09T09:27:53.154Z,88.90
2023-01-09T09:30:21.366Z,88.16
2023-01-09T09:32:50.794Z,88.27
2023-01-09T09:35:20.999Z,88.40
2023-01-09T09:37:55.422Z,88.05
2023-01-09T09:40:36.475Z,86.87
2023-01-09T09:43:53.580Z,86.86
2023-01-09T09:46:34.095Z,86.82
2023-01-09T09:49:11.300Z,86.06
2023-01-09T09:51:53.834Z,86.56
2023-01-09T09:54:28.459Z,86.03
2023-01-09T09:56:59.329Z,85.57
2023-01-09T09:59:30.766Z,86.55
2023-01-09T10:02:01.995Z,85.42
2023-01-09T10:04:35.029Z,85.27
2023-01-09T10:07:09.507Z,84.82
2023-01-09T10:09:46.756Z,84.34
2023-01-09T10:12:28.331Z,83.87
2023-01-09T10:14:58.343Z,84.72
2023-01-09T10:17:39.533Z,84.72
2023-01-09T10:20:31.258Z,83.52
2023-01-09T10:23:09.732Z,83.36
2023-01-09T10:25:44.999Z,83.26
2023-01-09T10:28:32.360Z,82.45
2023-01-09T10:31:05.681Z,82.10
2023-01-09T10:33:51.351Z,83.05
2023-01-09T10:36:50.800Z,83.67
2023-01-09T10:39:21.970Z,83.01
2023-01-09T10:41:57.907Z,83.55
2023-01-09T10:44:34.816Z,83.51
2023-01-09T10:47:05.384Z,82.44
2023-01-09T10:49:33.139Z,83.09
2023-01-09T10:52:15.454Z,83.23
2023-01-09T10:54:50.408Z,82.80
2023-01-09T10:57:35.095Z,82.70
2023-01-09T11:00:03.266Z,82.29
2023-01-09T11:02:35.358Z,82.27
2023-01-09T11:05:03.309Z,81.71
2023-01-09T11:07:38.065Z,81.31
2023-01-09T11:10:08.518Z,80.71
2023-01-09T11:12:37.679Z,80.33
2023-01-09T11:15:29.160Z,79.16
2023-01-09T11:18:19.172Z,77.94
2023-01-09T11:20:47.139Z,80.01
2023-01-09T11:23:40.055Z,78.84
2023-01-09T11:26:22.071Z,78.66
2023-01-09T11:29:06.797Z,77.08
2023-01-09T11:31:35.484Z,78.40
2023-01-09T11:34:03.816Z,77.43
2023-01-09T11:36:32.230Z,78.15
2023-01-09T11:39:02.859Z,76.27
2023-01-09T11:41:34.547Z,75.99
2023-01-09T11:44:05.186Z,77.01
2023-01-09T11:46:38.565Z,77.28
2023-01-09T11:49:20.979Z,77.35
2023-01-09T11:52:06.751Z,77.31
2023-01-09T11:54:39.481Z,77.59
2023-01-09T11:57:12.299Z,77.97
2023-01-09T11:59:40.449Z,77.09
2023-01-09T12:02:42.513Z,77.71
2023-01-09T12:05:21.376Z,77.01
2023-01-09T12:08:14.693Z,77.01
2023-01-09T12:10:59.195Z,77.82
2023-01-09T12:13:47.033Z,77.94
2023-01-09T12:16:26.923Z,78.36
2023-01-09T12:19:09.088Z,78.94
2023-01-09T12:21:42.695Z,78.19
2023-01-09T12:24:27.388Z,78.03
2023-01-09T12:27:06.811Z,77.77
2023-01-09T12:29:51.387Z,77.40
2023-01-09T12:32:46.133Z,76.89
2023-01-09T12:35:30.799Z,77.73
2023-01-09T12:38:17.540Z,76.48
2023-01-09T12:41:06.827Z,77.13
2023-01-09T12:43:49.781Z,76.76
2023-01-09T12:46:20.443Z,77.89
2023-01-09T12:49:10.555Z,77.53
2023-01-09T12:51:43.075Z,77.74
2023-01-09T12:54:18.217Z,77.24
2023-01-09T12:56:52.074Z,78.78
2023-01-09T12:59:31.323Z,77.94
2023-01-09T13:02:05.791Z,79.04
2023-01-09T13:04:38.533Z,79.53
2023-01-09T13:07:12.952Z,79.99
2023-01-09T13:09:46.881Z,80.69
2023-01-09T13:12:21.554Z,81.12
2023-01-09T13:14:56.520Z,82.00
2023-01-09T13:17:31.063Z,82.37
2023-01-09T13:19:59.108Z,81.94
2023-01-09T13:22:29.038Z,80.98
2023-01-09T13:25:22.215Z,80.14
2023-01-09T13:27:59.182Z,79.57
2023-01-09T13:30:46.089Z,79.47
2023-01-09T13:33:21.059Z,80.37
2023-01-09T13:35:51.350Z,81.07
2023-01-09T13:38:22.375Z,79.69
2023-01-09T13:41:22.916Z,78.70
2023-01-09T13:43:56.545Z,79.00
2023-01-09T13:46:36.847Z,79.35
2023-01-09T13:49:04.976Z,78.89
2023-01-09T13:51:58.185Z,79.29
2023-01-09T13:55:01.701Z,79.70
2023-01-09T13:57:31.703Z,80.93
2023-01-09T14:00:20.605Z,81.11
2023-01-09T14:03:06.754Z,81.09
2023-01-09T14:06:07.849Z,80.67
2023-01-09T14:08:36.112Z,81.06
2023-01-09T14:11:05.971Z,80.82
2023-01-09T14:13:40.038Z,81.41
2023-01-09T14:16:10.950Z,82.36
2023-01-09T14:18:49.319Z,82.90
2023-01-09T14:21:17.577Z,82.95
2023-01-09T14:23:56.023Z,83.93
2023-01-09T14:26:27.167Z,83.98
2023-01-09T14:29:30.166Z,84.85
2023-01-09T14:32:39.054Z,84.32
2023-01-09T14:35:16.234Z,85.25
2023-01-09T14:37:46.917Z,85.79
2023-01-09T14:40:23.268Z,86.29
2023-01-09T14:42:53.948Z,86.12
2023-01-09T14:45:24.543Z,85.85
2023-01-09T14:47:57.407Z,85.08
2023-01-09T14:50:33.455Z,85.97
2023-01-09T14:53:06.549Z,86.87
2023-01-09T14:55:50.751Z,86.82
2023-01-09T14:58:23.910Z,86.74
2023-01-09T15:00:59.680Z,86.77
2023-01-09T15:03:33.103Z,87.37
2023-01-09T15:06:02.899Z,87.61
2023-01-09T15:08:30.901Z,87.48
2023-01-09T15:10:59.958Z,87.74
2023-01-09T15:13:35.698Z,88.60
2023-01-09T15:16:07.044Z,89.15
2023-01-09T15:18:42.758Z,89.17
2023-01-09T15:21:25.703Z,88.97
2023-01-09T15:23:54.226Z,89.74
2023-01-09T15:26:26.503Z,90.02
2023-01-09T15:28:55.473Z,90.00
2023-01-09T15:31:25.210Z,89.85
2023-01-09T15:33:54.211Z,89.55
2023-01-09T15:36:26.095Z,88.99
2023-01-09T15:38:54.757Z,89.52
2023-01-09T15:41:44.784Z,89.46
2023-01-09T15:44:16.982Z,88.21
2023-01-09T15:46:46.541Z,87.82
2023-01-09T15:49:15.432Z,87.69
2023-01-09T15:51:46.930Z,88.04
2023-01-09T15:54:16.437Z,87.64
2023-01-09T15:56:46.408Z,87.28
2023-01-09T15:59:25.389Z,87.71
2023-01-09T16:02:19.858Z,88.43
2023-01-09T16:04:47.994Z,88.29
2023-01-09T16:07:21.698Z,87.91
2023-01-09T16:09:52.906Z,87.77
2023-01-09T16:12:23.562Z,87.93
2023-01-09T16:14:55.367Z,87.72
2023-01-09T16:17:26.756Z,87.25
2023-01-09T16:19:57.986Z,87.77
2023-01-09T16:22:30.003Z,87.58
2023-01-09T16:25:02.092Z,87.30
2023-01-09T16:27:33.223Z,87.01
2023-01-09T16:30:02.361Z,87.28
2023-01-09T16:32:32.370Z,87.29
2023-01-09T16:35:05.456Z,85.54
2023-01-09T16:37:36.071Z,86.24
2023-01-09T16:40:29.917Z,85.59
2023-01-09T16:43:01.793Z,86.69
2023-01-09T16:45:32.411Z,86.75
2023-01-09T16:48:00.971Z,86.70
2023-01-09T16:50:31.740Z,86.44
2023-01-09T16:53:03.218Z,86.98
2023-01-09T16:55:31.037Z,85.97
2023-01-09T16:57:59.027Z,86.33
2023-01-09T17:00:27.294Z,86.54
2023-01-09T17:02:56.609Z,86.64
2023-01-09T17:05:24.514Z,86.62
2023-01-09T17:07:52.372Z,87.07
2023-01-09T17:10:23.632Z,86.99
2023-01-09T17:12:51.494Z,87.40
2023-01-09T17:15:19.410Z,87.58
2023-01-09T17:17:47.299Z,87.15
2023-01-09T17:20:17.408Z,86.59
2023-01-09T17:22:45.624Z,86.71
2023-01-09T17:25:34.903Z,86.31
2023-01-09T17:28:23.019Z,86.09
2023-01-09T17:30:51.363Z,85.16
2023-01-09T17:33:20.558Z,84.75
2023-01-09T17:35:48.680Z,85.72
2023-01-09T17:38:17.523Z,83.94
2023-01-09T17:40:46.123Z,84.91
2023-01-09T17:43:16.336Z,84.83
2023-01-09T17:45:44.389Z,84.74
2023-01-09T17:48:17.659Z,84.68
2023-01-09T17:50:46.270Z,84.40
2023-01-09T17:53:14.503Z,85.05
2023-01-09T17:55:43.238Z,84.62
2023-01-09T17:58:26.559Z,85.48
2023-01-09T18:00:54.623Z,85.41
2023-01-09T18:03:24.356Z,85.23
2023-01-09T18:05:52.679Z,85.46
2023-01-09T18:08:20.749Z,85.04
2023-01-09T18:10:49.090Z,85.92
2023-01-09T18:13:17.462Z,85.36
2023-01-09T18:15:48.671Z,85.22
2023-01-09T18:18:17.172Z,85.22
2023-01-09T18:20:46.452Z,85.26
2023-01-09T18:23:18.511Z,86.09
2023-01-09T18:25:55.340Z,85.72
2023-01-09T18:28:23.383Z,85.31
2023-01-09T18:30:52.985Z,86.39
2023-01-09T18:33:20.817Z,84.45
2023-01-09T18:35:48.834Z,85.48
2023-01-09T18:38:16.736Z,86.05
2023-01-09T18:40:44.885Z,85.83
2023-01-09T18:43:14.290Z,86.64
2023-01-09T18:45:42.207Z,86.33
2023-01-09T18:48:12.715Z,86.27
2023-01-09T18:50:40.594Z,87.34
2023-01-09T18:53:08.560Z,87.14
2023-01-09T18:55:37.573Z,87.35
2023-01-09T18:58:05.797Z,87.13
2023-01-09T19:00:33.675Z,87.23
2023-01-09T19:03:01.618Z,87.60
2023-01-09T19:05:33.373Z,87.26
2023-01-09T19:08:01.409Z,87.71
2023-01-09T19:10:29.239Z,87.14
2023-01-09T19:12:57.255Z,87.67
2023-01-09T19:15:25.068Z,88.13
2023-01-09T19:17:53.011Z,88.32
2023-01-09T19:20:20.971Z,87.77
2023-01-09T19:22:50.391Z,88.44
2023-01-09T19:25:18.631Z,89.13
2023-01-09T19:27:46.572Z,89.28
2023-01-09T19:30:14.760Z,89.00
2023-01-09T19:32:42.752Z,90.04
2023-01-09T19:35:10.871Z,90.40
2023-01-09T19:37:38.814Z,91.23
2023-01-09T19:40:09.222Z,90.81
2023-01-09T19:42:37.064Z,90.10
2023-01-09T19:45:05.724Z,89.94
2023-01-09T19:47:36.095Z,89.46
2023-01-09T19:50:05.253Z,89.47
2023-01-09T19:52:33.218Z,89.20
2023-01-09T19:55:01.279Z,89.26
2023-01-09T19:57:31.038Z,88.56
2023-01-09T19:59:59.129Z,88.64
2023-01-09T20:02:28.100Z,88.33
2023-01-09T20:04:56.167Z,88.64
2023-01-09T20:07:24.141Z,88.72
2023-01-09T20:09:52.031Z,88.58
2023-01-09T20:12:20.265Z,88.02
2023-01-09T20:14:49.652Z,89.07
2023-01-09T20:17:17.939Z,89.36
2023-01-09T20:19:46.373Z,88.90
2023-01-09T20:22:14.881Z,87.90
2023-01-09T20:24:42.989Z,89.04
2023-01-09T20:27:11.145Z,88.51
2023-01-09T20:29:39.427Z,88.54
2023-01-09T20:32:09.952Z,88.14
2023-01-09T20:34:38.017Z,88.50
2023-01-09T20:37:05.937Z,88.39
2023-01-09T20:39:33.871Z,88.73
2023-01-09T20:42:01.928Z,89.51
2023-01-09T20:44:30.096Z,88.96
2023-01-09T20:46:57.983Z,89.32
2023-01-09T20:49:27.374Z,88.70
2023-01-09T20:51:55.403Z,89.55
2023-01-09T20:54:23.586Z,89.19
2023-01-09T20:56:52.208Z,89.18
2023-01-09T20:59:22.238Z,89.30
2023-01-09T21:01:50.604Z,88.56
2023-01-09T21:04:19.092Z,89.89
2023-01-09T21:06:50.150Z,89.82
2023-01-09T21:09:18.723Z,90.00
2023-01-09T21:11:46.560Z,90.15
2023-01-09T21:14:14.520Z,90.19
2023-01-09T21:16:43.978Z,89.82
2023-01-09T21:19:13.445Z,90.59
2023-01-09T21:21:41.345Z,89.96
2023-01-09T21:24:10.807Z,90.89
2023-01-09T21:26:38.619Z,90.85
2023-01-09T21:29:08.376Z,90.83
2023-01-09T21:31:36.333Z,89.56
2023-01-09T21:34:06.365Z,90.10
2023-01-09T21:36:35.312Z,90.40
2023-01-09T21:39:04.911Z,89.94
2023-01-09T21:41:52.897Z,90.58
2023-01-09T21:44:38.233Z,91.39
2023-01-09T21:47:06.152Z,91.00
2023-01-09T21:49:35.938Z,91.87
2023-01-09T21:52:05.161Z,90.79
2023-01-09T21:54:33.857Z,91.59
2023-01-09T21:57:04.047Z,91.30
2023-01-09T21:59:32.025Z,92.24
2023-01-09T22:02:00.419Z,91.51
2023-01-09T22:04:30.507Z,91.68
2023-01-09T22:06:58.735Z,91.04
2023-01-09T22:09:26.849Z,90.99
2023-01-09T22:11:54.866Z,90.82
2023-01-09T22:14:24.996Z,91.93
2023-01-09T22:16:52.963Z,91.88
2023-01-09T22:19:21.198Z,90.88
2023-01-09T22:21:49.655Z,91.31
2023-01-09T22:24:19.836Z,92.76
2023-01-09T22:26:48.282Z,91.28
2023-01-09T22:29:17.118Z,91.33
2023-01-09T22:31:46.441Z,92.76
2023-01-09T22:34:15.942Z,92.12
2023-01-09T22:36:44.443Z,91.52
2023-01-09T22:39:14.262Z,92.29
2023-01-09T22:41:42.701Z,92.05
2023-01-09T22:44:11.063Z,92.81
2023-01-09T22:46:39.739Z,93.40
2023-01-09T22:49:12.127Z,93.09
2023-01-09T22:51:40.132Z,92.70
2023-01-09T22:54:08.022Z,91.97
2023-01-09T22:56:36.296Z,92.50
2023-01-09T22:59:04.217Z,92.24
2023-01-09T23:01:32.040Z,91.53
2023-01-09T23:04:00.017Z,92.47
2023-01-09T23:06:30.450Z,92.10
2023-01-09T23:08:58.343Z,92.49
2023-01-09T23:11:46.669Z,93.21
2023-01-09T23:14:14.608Z,92.86
2023-01-09T23:16:42.842Z,92.33
2023-01-09T23:19:13.022Z,92.69
2023-01-09T23:21:42.736Z,92.90
2023-01-09T23:24:11.556Z,92.11
2023-01-09T23:26:39.945Z,92.71
2023-01-09T23:29:08.488Z,91.99
2023-01-09T23:31:36.965Z,92.11
2023-01-09T23:34:08.241Z,91.98
2023-01-09T23:36:36.633Z,92.37
2023-01-09T23:39:09.042Z,92.54
2023-01-09T23:41:54.868Z,91.75
2023-01-09T23:44:22.891Z,92.59
2023-01-09T23:46:50.776Z,92.57
2023-01-09T23:49:18.887Z,92.27
2023-01-09T23:51:47.097Z,92.32
2023-01-09T23:54:17.389Z,91.89
2023-01-09T23:56:45.331Z,91.23
2023-01-09T23:59:15.058Z,91.63
